sensor_id;sensor_type;location;lat;lon;timestamp;temperature;humidity
12959;DHT22;6544;51.666;6.634;2023-09-30T00:00:59;15.70;1.00
12959;DHT22;6544;51.666;6.634;2023-09-30T00:03:26;15.80;1.00
12959;DHT22;6544;51.666;6.634;2023-09-30T00:05:53;15.70;1.00
12959;DHT22;6544;51.666;6.634;2023-09-30T00:08:20;15.70;1.00
12959;DHT22;6544;51.666;6.634;2023-09-30T00:10:48;15.70;1.00
12959;DHT22;6544;51.666;6.634;2023-09-30T00:13:15;15.60;1.00
12959;DHT22;6544;51.666;6.634;2023-09-30T00:15:42;15.60;1.00
12959;DHT22;6544;51.666;6.634;2023-09-30T00:18:08;15.60;1.00
12959;DHT22;6544;51.666;6.634;2023-09-30T00:20:36;15.50;23.30
12959;DHT22;6544;51.666;6.634;2023-09-30T00:23:03;15.50;49.10
12959;DHT22;6544;51.666;6.634;2023-09-30T00:25:31;15.60;28.00
12959;DHT22;6544;51.666;6.634;2023-09-30T00:28:00;15.60;4.40
12959;DHT22;6544;51.666;6.634;2023-09-30T00:30:26;15.60;5.40
12959;DHT22;6544;51.666;6.634;2023-09-30T00:32:53;15.50;29.60
12959;DHT22;6544;51.666;6.634;2023-09-30T00:35:20;15.50;40.20
12959;DHT22;6544;51.666;6.634;2023-09-30T00:37:47;15.50;55.60
12959;DHT22;6544;51.666;6.634;2023-09-30T00:40:14;15.40;84.60
12959;DHT22;6544;51.666;6.634;2023-09-30T00:42:42;15.40;93.70
12959;DHT22;6544;51.666;6.634;2023-09-30T00:45:11;15.30;96.80
12959;DHT22;6544;51.666;6.634;2023-09-30T00:47:38;15.30;96.10
12959;DHT22;6544;51.666;6.634;2023-09-30T00:50:06;15.40;99.90
12959;DHT22;6544;51.666;6.634;2023-09-30T00:52:35;15.40;99.20
12959;DHT22;6544;51.666;6.634;2023-09-30T00:55:02;15.40;99.90
12959;DHT22;6544;51.666;6.634;2023-09-30T00:57:31;15.30;98.30
12959;DHT22;6544;51.666;6.634;2023-09-30T00:59:58;15.30;99.90
12959;DHT22;6544;51.666;6.634;2023-09-30T01:02:28;15.30;99.90
12959;DHT22;6544;51.666;6.634;2023-09-30T01:04:55;15.20;99.90
12959;DHT22;6544;51.666;6.634;2023-09-30T01:07:22;15.20;99.90
12959;DHT22;6544;51.666;6.634;2023-09-30T01:09:49;15.20;99.90
12959;DHT22;6544;51.666;6.634;2023-09-30T01:12:16;15.10;99.90
12959;DHT22;6544;51.666;6.634;2023-09-30T01:14:43;15.10;99.90
12959;DHT22;6544;51.666;6.634;2023-09-30T01:17:10;15.10;99.90
12959;DHT22;6544;51.666;6.634;2023-09-30T01:19:40;15.10;99.90
12959;DHT22;6544;51.666;6.634;2023-09-30T01:22:09;15.10;99.90
12959;DHT22;6544;51.666;6.634;2023-09-30T01:24:39;15.00;99.90
12959;DHT22;6544;51.666;6.634;2023-09-30T01:27:06;15.10;99.90
12959;DHT22;6544;51.666;6.634;2023-09-30T01:29:33;15.10;99.90
12959;DHT22;6544;51.666;6.634;2023-09-30T01:32:00;15.10;99.90
12959;DHT22;6544;51.666;6.634;2023-09-30T01:34:27;15.00;99.90
12959;DHT22;6544;51.666;6.634;2023-09-30T01:36:54;15.10;99.90
12959;DHT22;6544;51.666;6.634;2023-09-30T01:39:22;15.20;99.90
12959;DHT22;6544;51.666;6.634;2023-09-30T01:41:49;15.20;99.90
12959;DHT22;6544;51.666;6.634;2023-09-30T01:44:16;15.10;99.90
12959;DHT22;6544;51.666;6.634;2023-09-30T01:46:43;15.00;99.90
12959;DHT22;6544;51.666;6.634;2023-09-30T01:49:10;15.10;99.90
12959;DHT22;6544;51.666;6.634;2023-09-30T01:51:37;15.10;99.90
12959;DHT22;6544;51.666;6.634;2023-09-30T01:54:04;15.00;99.90
12959;DHT22;6544;51.666;6.634;2023-09-30T01:56:32;15.00;78.70
12959;DHT22;6544;51.666;6.634;2023-09-30T01:58:59;15.00;90.50
12959;DHT22;6544;51.666;6.634;2023-09-30T02:01:26;15.00;99.90
12959;DHT22;6544;51.666;6.634;2023-09-30T02:03:53;15.00;99.00
12959;DHT22;6544;51.666;6.634;2023-09-30T02:06:20;15.00;72.00
12959;DHT22;6544;51.666;6.634;2023-09-30T02:08:47;15.00;55.40
12959;DHT22;6544;51.666;6.634;2023-09-30T02:11:14;15.00;74.10
12959;DHT22;6544;51.666;6.634;2023-09-30T02:13:43;15.00;48.80
12959;DHT22;6544;51.666;6.634;2023-09-30T02:16:14;15.00;26.80
12959;DHT22;6544;51.666;6.634;2023-09-30T02:18:43;15.00;32.70
12959;DHT22;6544;51.666;6.634;2023-09-30T02:21:11;14.90;42.50
12959;DHT22;6544;51.666;6.634;2023-09-30T02:23:38;14.90;31.90
12959;DHT22;6544;51.666;6.634;2023-09-30T02:26:05;14.80;52.90
12959;DHT22;6544;51.666;6.634;2023-09-30T02:28:32;14.80;60.60
12959;DHT22;6544;51.666;6.634;2023-09-30T02:31:01;14.80;57.90
12959;DHT22;6544;51.666;6.634;2023-09-30T02:33:29;14.80;48.10
12959;DHT22;6544;51.666;6.634;2023-09-30T02:35:56;14.80;50.40
12959;DHT22;6544;51.666;6.634;2023-09-30T02:38:23;14.80;33.00
12959;DHT22;6544;51.666;6.634;2023-09-30T02:40:50;14.70;24.40
12959;DHT22;6544;51.666;6.634;2023-09-30T02:43:17;14.60;29.60
12959;DHT22;6544;51.666;6.634;2023-09-30T02:45:45;14.60;58.30
12959;DHT22;6544;51.666;6.634;2023-09-30T02:48:13;14.60;89.30
12959;DHT22;6544;51.666;6.634;2023-09-30T02:50:42;14.60;99.90
12959;DHT22;6544;51.666;6.634;2023-09-30T02:53:10;14.60;64.50
12959;DHT22;6544;51.666;6.634;2023-09-30T02:55:37;14.70;82.30
12959;DHT22;6544;51.666;6.634;2023-09-30T02:58:04;14.70;72.70
12959;DHT22;6544;51.666;6.634;2023-09-30T03:00:32;14.70;99.90
12959;DHT22;6544;51.666;6.634;2023-09-30T03:03:00;14.70;99.90
12959;DHT22;6544;51.666;6.634;2023-09-30T03:05:30;14.60;99.90
12959;DHT22;6544;51.666;6.634;2023-09-30T03:07:59;14.60;99.90
12959;DHT22;6544;51.666;6.634;2023-09-30T03:10:26;14.60;99.90
12959;DHT22;6544;51.666;6.634;2023-09-30T03:12:53;14.60;99.90
12959;DHT22;6544;51.666;6.634;2023-09-30T03:15:20;14.50;99.90
12959;DHT22;6544;51.666;6.634;2023-09-30T03:17:48;14.40;99.90
12959;DHT22;6544;51.666;6.634;2023-09-30T03:20:15;14.40;99.90
12959;DHT22;6544;51.666;6.634;2023-09-30T03:22:46;14.40;99.90
12959;DHT22;6544;51.666;6.634;2023-09-30T03:25:15;14.40;99.90
12959;DHT22;6544;51.666;6.634;2023-09-30T03:27:43;14.50;99.90
12959;DHT22;6544;51.666;6.634;2023-09-30T03:30:11;14.50;99.90
12959;DHT22;6544;51.666;6.634;2023-09-30T03:32:38;14.50;99.90
12959;DHT22;6544;51.666;6.634;2023-09-30T03:35:05;14.40;99.90
12959;DHT22;6544;51.666;6.634;2023-09-30T03:37:34;14.40;99.90
12959;DHT22;6544;51.666;6.634;2023-09-30T03:40:03;14.40;99.90
12959;DHT22;6544;51.666;6.634;2023-09-30T03:42:39;14.50;99.90
12959;DHT22;6544;51.666;6.634;2023-09-30T03:45:08;14.50;99.90
12959;DHT22;6544;51.666;6.634;2023-09-30T03:47:36;14.50;99.90
12959;DHT22;6544;51.666;6.634;2023-09-30T03:50:04;14.50;99.90
12959;DHT22;6544;51.666;6.634;2023-09-30T03:52:33;14.40;99.90
12959;DHT22;6544;51.666;6.634;2023-09-30T03:55:00;14.40;99.90
12959;DHT22;6544;51.666;6.634;2023-09-30T03:57:30;14.40;99.90
12959;DHT22;6544;51.666;6.634;2023-09-30T03:59:57;14.40;99.90
12959;DHT22;6544;51.666;6.634;2023-09-30T04:02:24;14.30;99.90
12959;DHT22;6544;51.666;6.634;2023-09-30T04:04:51;14.30;99.90
12959;DHT22;6544;51.666;6.634;2023-09-30T04:07:19;14.30;99.90
12959;DHT22;6544;51.666;6.634;2023-09-30T04:09:47;14.30;99.90
12959;DHT22;6544;51.666;6.634;2023-09-30T04:12:14;14.20;99.90
12959;DHT22;6544;51.666;6.634;2023-09-30T04:14:43;14.20;99.90
12959;DHT22;6544;51.666;6.634;2023-09-30T04:17:10;14.20;99.90
12959;DHT22;6544;51.666;6.634;2023-09-30T04:19:37;14.20;99.90
12959;DHT22;6544;51.666;6.634;2023-09-30T04:22:04;14.20;99.90
12959;DHT22;6544;51.666;6.634;2023-09-30T04:24:31;14.30;99.90
12959;DHT22;6544;51.666;6.634;2023-09-30T04:26:58;14.20;99.90
12959;DHT22;6544;51.666;6.634;2023-09-30T04:29:31;14.30;99.90
12959;DHT22;6544;51.666;6.634;2023-09-30T04:32:00;14.20;99.90
12959;DHT22;6544;51.666;6.634;2023-09-30T04:34:27;14.20;99.90
12959;DHT22;6544;51.666;6.634;2023-09-30T04:36:54;14.20;99.90
12959;DHT22;6544;51.666;6.634;2023-09-30T04:39:21;14.20;99.90
12959;DHT22;6544;51.666;6.634;2023-09-30T04:41:48;14.20;99.90
12959;DHT22;6544;51.666;6.634;2023-09-30T04:44:15;14.20;99.90
12959;DHT22;6544;51.666;6.634;2023-09-30T04:46:42;14.20;99.90
12959;DHT22;6544;51.666;6.634;2023-09-30T04:49:14;14.20;99.90
12959;DHT22;6544;51.666;6.634;2023-09-30T04:51:41;14.20;99.90
12959;DHT22;6544;51.666;6.634;2023-09-30T04:54:08;14.20;99.90
12959;DHT22;6544;51.666;6.634;2023-09-30T04:56:36;14.10;99.90
12959;DHT22;6544;51.666;6.634;2023-09-30T04:59:04;14.20;99.90
12959;DHT22;6544;51.666;6.634;2023-09-30T05:01:31;14.20;99.90
12959;DHT22;6544;51.666;6.634;2023-09-30T05:03:58;14.20;99.90
12959;DHT22;6544;51.666;6.634;2023-09-30T05:06:26;14.20;99.90
12959;DHT22;6544;51.666;6.634;2023-09-30T05:08:53;14.20;99.90
12959;DHT22;6544;51.666;6.634;2023-09-30T05:11:20;14.20;99.90
12959;DHT22;6544;51.666;6.634;2023-09-30T05:13:47;14.20;99.90
12959;DHT22;6544;51.666;6.634;2023-09-30T05:16:14;14.20;99.90
12959;DHT22;6544;51.666;6.634;2023-09-30T05:18:41;14.10;99.90
12959;DHT22;6544;51.666;6.634;2023-09-30T05:21:08;14.10;99.90
12959;DHT22;6544;51.666;6.634;2023-09-30T05:23:37;14.10;99.90
12959;DHT22;6544;51.666;6.634;2023-09-30T05:26:04;14.10;99.90
12959;DHT22;6544;51.666;6.634;2023-09-30T05:28:32;14.10;99.90
12959;DHT22;6544;51.666;6.634;2023-09-30T05:31:00;14.00;99.90
12959;DHT22;6544;51.666;6.634;2023-09-30T05:33:27;14.10;99.90
12959;DHT22;6544;51.666;6.634;2023-09-30T05:35:53;14.00;99.90
12959;DHT22;6544;51.666;6.634;2023-09-30T05:38:22;14.00;99.90
12959;DHT22;6544;51.666;6.634;2023-09-30T05:40:51;13.90;99.90
12959;DHT22;6544;51.666;6.634;2023-09-30T05:43:20;14.00;99.90
12959;DHT22;6544;51.666;6.634;2023-09-30T05:45:47;14.00;99.90
12959;DHT22;6544;51.666;6.634;2023-09-30T05:48:20;14.00;99.90
12959;DHT22;6544;51.666;6.634;2023-09-30T05:50:47;13.90;99.90
12959;DHT22;6544;51.666;6.634;2023-09-30T05:53:14;14.00;99.90
12959;DHT22;6544;51.666;6.634;2023-09-30T05:55:41;13.90;99.90
12959;DHT22;6544;51.666;6.634;2023-09-30T05:58:10;13.90;99.90
12959;DHT22;6544;51.666;6.634;2023-09-30T06:00:39;14.00;99.90
12959;DHT22;6544;51.666;6.634;2023-09-30T06:03:08;13.90;99.90
12959;DHT22;6544;51.666;6.634;2023-09-30T06:05:39;13.90;99.90
12959;DHT22;6544;51.666;6.634;2023-09-30T06:08:09;13.80;99.90
12959;DHT22;6544;51.666;6.634;2023-09-30T06:10:40;13.80;1.00
12959;DHT22;6544;51.666;6.634;2023-09-30T06:13:10;13.80;1.00
12959;DHT22;6544;51.666;6.634;2023-09-30T06:15:37;13.80;1.00
12959;DHT22;6544;51.666;6.634;2023-09-30T06:18:07;13.90;1.00
12959;DHT22;6544;51.666;6.634;2023-09-30T06:20:35;13.80;1.00
12959;DHT22;6544;51.666;6.634;2023-09-30T06:23:02;13.70;1.00
12959;DHT22;6544;51.666;6.634;2023-09-30T06:25:29;13.70;1.00
12959;DHT22;6544;51.666;6.634;2023-09-30T06:27:59;13.70;1.00
12959;DHT22;6544;51.666;6.634;2023-09-30T06:30:27;13.70;1.00
12959;DHT22;6544;51.666;6.634;2023-09-30T06:32:56;13.70;1.00
12959;DHT22;6544;51.666;6.634;2023-09-30T06:35:22;13.80;1.00
12959;DHT22;6544;51.666;6.634;2023-09-30T06:37:49;13.80;1.00
12959;DHT22;6544;51.666;6.634;2023-09-30T06:40:16;13.80;1.00
12959;DHT22;6544;51.666;6.634;2023-09-30T06:42:44;13.80;1.00
12959;DHT22;6544;51.666;6.634;2023-09-30T06:45:11;13.80;1.00
12959;DHT22;6544;51.666;6.634;2023-09-30T06:47:42;13.90;1.00
12959;DHT22;6544;51.666;6.634;2023-09-30T06:50:12;13.90;1.00
12959;DHT22;6544;51.666;6.634;2023-09-30T06:52:43;13.90;1.00
12959;DHT22;6544;51.666;6.634;2023-09-30T06:55:11;13.90;1.00
12959;DHT22;6544;51.666;6.634;2023-09-30T06:57:39;14.00;1.00
12959;DHT22;6544;51.666;6.634;2023-09-30T07:00:07;14.00;1.00
12959;DHT22;6544;51.666;6.634;2023-09-30T07:02:35;14.00;1.00
12959;DHT22;6544;51.666;6.634;2023-09-30T07:05:06;14.00;1.00
12959;DHT22;6544;51.666;6.634;2023-09-30T07:07:32;14.00;1.00
12959;DHT22;6544;51.666;6.634;2023-09-30T07:09:59;14.10;1.00
12959;DHT22;6544;51.666;6.634;2023-09-30T07:12:26;14.10;1.00
12959;DHT22;6544;51.666;6.634;2023-09-30T07:14:53;14.20;1.00
12959;DHT22;6544;51.666;6.634;2023-09-30T07:17:23;14.20;1.00
12959;DHT22;6544;51.666;6.634;2023-09-30T07:19:50;14.20;1.00
12959;DHT22;6544;51.666;6.634;2023-09-30T07:22:18;14.30;1.00
12959;DHT22;6544;51.666;6.634;2023-09-30T07:24:45;14.30;1.00
12959;DHT22;6544;51.666;6.634;2023-09-30T07:27:12;14.40;1.00
12959;DHT22;6544;51.666;6.634;2023-09-30T07:29:39;14.50;1.00
12959;DHT22;6544;51.666;6.634;2023-09-30T07:32:06;14.50;1.00
12959;DHT22;6544;51.666;6.634;2023-09-30T07:34:33;14.60;1.00
12959;DHT22;6544;51.666;6.634;2023-09-30T07:37:00;14.70;1.00
12959;DHT22;6544;51.666;6.634;2023-09-30T07:39:29;14.70;1.00
12959;DHT22;6544;51.666;6.634;2023-09-30T07:41:56;14.80;1.00
12959;DHT22;6544;51.666;6.634;2023-09-30T07:44:23;14.90;1.00
12959;DHT22;6544;51.666;6.634;2023-09-30T07:46:50;15.00;1.00
12959;DHT22;6544;51.666;6.634;2023-09-30T07:49:17;15.10;1.00
12959;DHT22;6544;51.666;6.634;2023-09-30T07:51:44;15.00;1.00
12959;DHT22;6544;51.666;6.634;2023-09-30T07:54:11;15.10;1.00
12959;DHT22;6544;51.666;6.634;2023-09-30T07:56:40;15.20;1.00
12959;DHT22;6544;51.666;6.634;2023-09-30T07:59:06;15.30;1.00
12959;DHT22;6544;51.666;6.634;2023-09-30T08:01:33;15.30;1.00
12959;DHT22;6544;51.666;6.634;2023-09-30T08:04:00;15.40;1.00
12959;DHT22;6544;51.666;6.634;2023-09-30T08:06:27;15.50;1.00
12959;DHT22;6544;51.666;6.634;2023-09-30T08:08:54;15.60;1.00
12959;DHT22;6544;51.666;6.634;2023-09-30T08:11:21;15.60;99.90
12959;DHT22;6544;51.666;6.634;2023-09-30T08:13:52;15.50;99.90
12959;DHT22;6544;51.666;6.634;2023-09-30T08:16:19;15.60;1.00
12959;DHT22;6544;51.666;6.634;2023-09-30T08:18:46;15.70;1.00
12959;DHT22;6544;51.666;6.634;2023-09-30T08:21:13;15.90;99.90
12959;DHT22;6544;51.666;6.634;2023-09-30T08:23:40;15.90;99.90
12959;DHT22;6544;51.666;6.634;2023-09-30T08:26:07;16.00;99.90
12959;DHT22;6544;51.666;6.634;2023-09-30T08:28:33;16.00;99.90
12959;DHT22;6544;51.666;6.634;2023-09-30T08:31:05;16.10;99.90
12959;DHT22;6544;51.666;6.634;2023-09-30T08:33:32;16.00;99.90
12959;DHT22;6544;51.666;6.634;2023-09-30T08:36:04;16.20;99.90
12959;DHT22;6544;51.666;6.634;2023-09-30T08:38:33;16.20;99.90
12959;DHT22;6544;51.666;6.634;2023-09-30T08:41:01;16.20;99.90
12959;DHT22;6544;51.666;6.634;2023-09-30T08:43:28;16.30;99.90
12959;DHT22;6544;51.666;6.634;2023-09-30T08:45:57;16.40;99.90
12959;DHT22;6544;51.666;6.634;2023-09-30T08:48:27;16.50;99.90
12959;DHT22;6544;51.666;6.634;2023-09-30T08:50:55;16.60;99.90
12959;DHT22;6544;51.666;6.634;2023-09-30T08:53:23;16.60;99.90
12959;DHT22;6544;51.666;6.634;2023-09-30T08:55:53;16.70;99.90
12959;DHT22;6544;51.666;6.634;2023-09-30T08:58:24;16.70;99.90
12959;DHT22;6544;51.666;6.634;2023-09-30T09:00:53;16.80;99.90
12959;DHT22;6544;51.666;6.634;2023-09-30T09:03:20;16.90;99.90
12959;DHT22;6544;51.666;6.634;2023-09-30T09:05:53;17.00;24.50
12959;DHT22;6544;51.666;6.634;2023-09-30T09:08:21;17.00;9.10
12959;DHT22;6544;51.666;6.634;2023-09-30T09:10:59;16.90;1.00
12959;DHT22;6544;51.666;6.634;2023-09-30T09:13:45;17.00;1.00
12959;DHT22;6544;51.666;6.634;2023-09-30T09:16:12;17.10;22.70
12959;DHT22;6544;51.666;6.634;2023-09-30T09:18:39;17.20;1.00
12959;DHT22;6544;51.666;6.634;2023-09-30T09:21:13;17.20;1.00
12959;DHT22;6544;51.666;6.634;2023-09-30T09:23:41;17.20;1.00
12959;DHT22;6544;51.666;6.634;2023-09-30T09:26:08;17.40;1.00
12959;DHT22;6544;51.666;6.634;2023-09-30T09:28:35;17.40;1.00
12959;DHT22;6544;51.666;6.634;2023-09-30T09:31:19;17.40;1.00
12959;DHT22;6544;51.666;6.634;2023-09-30T09:33:47;17.50;1.00
12959;DHT22;6544;51.666;6.634;2023-09-30T09:36:16;17.70;1.00
12959;DHT22;6544;51.666;6.634;2023-09-30T09:38:47;17.80;1.00
12959;DHT22;6544;51.666;6.634;2023-09-30T09:41:15;17.90;1.00
12959;DHT22;6544;51.666;6.634;2023-09-30T09:43:43;17.80;1.00
12959;DHT22;6544;51.666;6.634;2023-09-30T09:46:10;17.90;1.00
12959;DHT22;6544;51.666;6.634;2023-09-30T09:48:38;18.00;1.00
12959;DHT22;6544;51.666;6.634;2023-09-30T09:51:05;18.10;1.00
12959;DHT22;6544;51.666;6.634;2023-09-30T09:53:36;18.10;1.00
12959;DHT22;6544;51.666;6.634;2023-09-30T09:56:03;18.10;1.00
12959;DHT22;6544;51.666;6.634;2023-09-30T09:58:33;18.10;1.00
12959;DHT22;6544;51.666;6.634;2023-09-30T10:01:01;18.20;1.00
12959;DHT22;6544;51.666;6.634;2023-09-30T10:03:28;18.20;1.00
12959;DHT22;6544;51.666;6.634;2023-09-30T10:05:56;18.30;1.00
12959;DHT22;6544;51.666;6.634;2023-09-30T10:08:30;18.50;1.00
12959;DHT22;6544;51.666;6.634;2023-09-30T10:10:59;18.60;1.00
12959;DHT22;6544;51.666;6.634;2023-09-30T10:13:51;18.80;1.00
12959;DHT22;6544;51.666;6.634;2023-09-30T10:16:46;18.80;1.00
12959;DHT22;6544;51.666;6.634;2023-09-30T10:19:16;18.90;1.00
12959;DHT22;6544;51.666;6.634;2023-09-30T10:22:21;18.90;1.00
12959;DHT22;6544;51.666;6.634;2023-09-30T10:24:49;19.00;1.00
12959;DHT22;6544;51.666;6.634;2023-09-30T10:27:31;19.20;1.00
12959;DHT22;6544;51.666;6.634;2023-09-30T10:30:09;19.30;1.00
12959;DHT22;6544;51.666;6.634;2023-09-30T10:33:07;19.40;1.00
12959;DHT22;6544;51.666;6.634;2023-09-30T10:35:45;19.40;1.00
12959;DHT22;6544;51.666;6.634;2023-09-30T10:38:40;19.50;1.00
12959;DHT22;6544;51.666;6.634;2023-09-30T10:41:07;19.60;1.00
12959;DHT22;6544;51.666;6.634;2023-09-30T10:43:37;19.60;1.00
12959;DHT22;6544;51.666;6.634;2023-09-30T10:46:31;19.80;1.00
12959;DHT22;6544;51.666;6.634;2023-09-30T10:49:31;19.70;1.00
12959;DHT22;6544;51.666;6.634;2023-09-30T10:51:59;19.80;1.00
12959;DHT22;6544;51.666;6.634;2023-09-30T10:54:28;19.80;1.00
12959;DHT22;6544;51.666;6.634;2023-09-30T10:56:58;19.80;1.00
12959;DHT22;6544;51.666;6.634;2023-09-30T10:59:29;19.90;1.00
12959;DHT22;6544;51.666;6.634;2023-09-30T11:01:56;19.60;1.00
12959;DHT22;6544;51.666;6.634;2023-09-30T11:04:23;19.60;1.00
12959;DHT22;6544;51.666;6.634;2023-09-30T11:06:52;19.60;1.00
12959;DHT22;6544;51.666;6.634;2023-09-30T11:09:20;19.80;1.00
12959;DHT22;6544;51.666;6.634;2023-09-30T11:11:49;20.00;1.00
12959;DHT22;6544;51.666;6.634;2023-09-30T11:14:17;20.10;1.00
12959;DHT22;6544;51.666;6.634;2023-09-30T11:16:46;20.00;1.00
12959;DHT22;6544;51.666;6.634;2023-09-30T11:19:13;20.10;1.00
12959;DHT22;6544;51.666;6.634;2023-09-30T11:21:41;19.70;1.00
12959;DHT22;6544;51.666;6.634;2023-09-30T11:24:09;20.00;1.00
12959;DHT22;6544;51.666;6.634;2023-09-30T11:26:36;20.20;1.00
12959;DHT22;6544;51.666;6.634;2023-09-30T11:29:08;20.40;1.00
12959;DHT22;6544;51.666;6.634;2023-09-30T11:31:37;20.00;1.00
12959;DHT22;6544;51.666;6.634;2023-09-30T11:34:06;20.10;1.00
12959;DHT22;6544;51.666;6.634;2023-09-30T11:36:35;20.40;1.00
12959;DHT22;6544;51.666;6.634;2023-09-30T11:39:02;20.50;1.00
12959;DHT22;6544;51.666;6.634;2023-09-30T11:41:34;20.70;99.90
12959;DHT22;6544;51.666;6.634;2023-09-30T11:44:04;20.20;99.90
12959;DHT22;6544;51.666;6.634;2023-09-30T11:46:47;20.30;99.90
12959;DHT22;6544;51.666;6.634;2023-09-30T11:49:25;19.60;1.00
12959;DHT22;6544;51.666;6.634;2023-09-30T11:51:53;19.60;1.00
12959;DHT22;6544;51.666;6.634;2023-09-30T11:54:20;19.90;1.00
12959;DHT22;6544;51.666;6.634;2023-09-30T11:56:48;20.10;99.90
12959;DHT22;6544;51.666;6.634;2023-09-30T11:59:16;20.40;99.90
12959;DHT22;6544;51.666;6.634;2023-09-30T12:01:45;20.60;99.90
12959;DHT22;6544;51.666;6.634;2023-09-30T12:04:14;20.80;99.90
12959;DHT22;6544;51.666;6.634;2023-09-30T12:06:44;20.90;99.90
12959;DHT22;6544;51.666;6.634;2023-09-30T12:09:11;21.00;99.90
12959;DHT22;6544;51.666;6.634;2023-09-30T12:11:40;20.90;99.90
12959;DHT22;6544;51.666;6.634;2023-09-30T12:14:10;21.00;99.90
12959;DHT22;6544;51.666;6.634;2023-09-30T12:16:37;21.20;99.90
12959;DHT22;6544;51.666;6.634;2023-09-30T12:19:04;21.20;99.90
12959;DHT22;6544;51.666;6.634;2023-09-30T12:21:32;21.20;99.90
12959;DHT22;6544;51.666;6.634;2023-09-30T12:24:01;21.30;99.90
12959;DHT22;6544;51.666;6.634;2023-09-30T12:26:28;20.70;99.90
12959;DHT22;6544;51.666;6.634;2023-09-30T12:28:56;20.60;99.90
12959;DHT22;6544;51.666;6.634;2023-09-30T12:31:23;20.90;99.90
12959;DHT22;6544;51.666;6.634;2023-09-30T12:33:49;21.10;99.90
12959;DHT22;6544;51.666;6.634;2023-09-30T12:36:17;21.20;99.90
12959;DHT22;6544;51.666;6.634;2023-09-30T12:38:44;21.20;99.90
12959;DHT22;6544;51.666;6.634;2023-09-30T12:41:13;21.30;99.90
12959;DHT22;6544;51.666;6.634;2023-09-30T12:43:42;21.30;99.90
12959;DHT22;6544;51.666;6.634;2023-09-30T12:46:09;21.30;99.90
12959;DHT22;6544;51.666;6.634;2023-09-30T12:48:39;21.20;99.90
12959;DHT22;6544;51.666;6.634;2023-09-30T12:51:06;21.00;99.90
12959;DHT22;6544;51.666;6.634;2023-09-30T12:53:34;21.00;99.90
12959;DHT22;6544;51.666;6.634;2023-09-30T12:56:01;21.00;99.90
12959;DHT22;6544;51.666;6.634;2023-09-30T12:58:29;21.10;99.90
12959;DHT22;6544;51.666;6.634;2023-09-30T13:00:56;21.10;99.90
12959;DHT22;6544;51.666;6.634;2023-09-30T13:03:24;21.20;99.90
12959;DHT22;6544;51.666;6.634;2023-09-30T13:05:51;21.20;99.90
12959;DHT22;6544;51.666;6.634;2023-09-30T13:08:17;21.20;99.90
12959;DHT22;6544;51.666;6.634;2023-09-30T13:10:44;21.00;99.90
12959;DHT22;6544;51.666;6.634;2023-09-30T13:13:13;21.20;99.90
12959;DHT22;6544;51.666;6.634;2023-09-30T13:15:41;21.30;99.90
12959;DHT22;6544;51.666;6.634;2023-09-30T13:18:08;21.10;99.90
12959;DHT22;6544;51.666;6.634;2023-09-30T13:20:35;21.00;99.90
12959;DHT22;6544;51.666;6.634;2023-09-30T13:23:02;21.10;99.90
12959;DHT22;6544;51.666;6.634;2023-09-30T13:25:29;21.20;99.90
12959;DHT22;6544;51.666;6.634;2023-09-30T13:27:56;21.10;99.90
12959;DHT22;6544;51.666;6.634;2023-09-30T13:30:23;20.40;99.90
12959;DHT22;6544;51.666;6.634;2023-09-30T13:32:51;20.20;99.90
12959;DHT22;6544;51.666;6.634;2023-09-30T13:35:18;20.40;99.90
12959;DHT22;6544;51.666;6.634;2023-09-30T13:37:45;20.60;99.90
12959;DHT22;6544;51.666;6.634;2023-09-30T13:40:13;20.50;99.90
12959;DHT22;6544;51.666;6.634;2023-09-30T13:42:40;20.60;99.90
12959;DHT22;6544;51.666;6.634;2023-09-30T13:45:09;20.90;99.90
12959;DHT22;6544;51.666;6.634;2023-09-30T13:47:37;20.90;99.90
12959;DHT22;6544;51.666;6.634;2023-09-30T13:50:07;20.80;99.90
12959;DHT22;6544;51.666;6.634;2023-09-30T13:52:34;20.80;99.90
12959;DHT22;6544;51.666;6.634;2023-09-30T13:55:01;20.70;99.90
12959;DHT22;6544;51.666;6.634;2023-09-30T13:57:30;20.30;99.90
12959;DHT22;6544;51.666;6.634;2023-09-30T13:59:57;20.50;99.90
12959;DHT22;6544;51.666;6.634;2023-09-30T14:02:23;20.40;99.90
12959;DHT22;6544;51.666;6.634;2023-09-30T14:04:51;20.60;99.90
12959;DHT22;6544;51.666;6.634;2023-09-30T14:07:20;20.60;99.90
12959;DHT22;6544;51.666;6.634;2023-09-30T14:09:47;20.60;99.90
12959;DHT22;6544;51.666;6.634;2023-09-30T14:12:14;20.60;99.90
12959;DHT22;6544;51.666;6.634;2023-09-30T14:14:41;20.60;99.90
12959;DHT22;6544;51.666;6.634;2023-09-30T14:17:08;20.60;99.90
12959;DHT22;6544;51.666;6.634;2023-09-30T14:19:36;20.40;99.90
12959;DHT22;6544;51.666;6.634;2023-09-30T14:22:04;20.40;99.90
12959;DHT22;6544;51.666;6.634;2023-09-30T14:24:32;20.30;99.90
12959;DHT22;6544;51.666;6.634;2023-09-30T14:27:00;20.30;99.90
12959;DHT22;6544;51.666;6.634;2023-09-30T14:29:27;20.40;99.90
12959;DHT22;6544;51.666;6.634;2023-09-30T14:31:55;20.50;99.90
12959;DHT22;6544;51.666;6.634;2023-09-30T14:34:23;20.50;99.90
12959;DHT22;6544;51.666;6.634;2023-09-30T14:36:50;20.40;99.90
12959;DHT22;6544;51.666;6.634;2023-09-30T14:39:17;20.40;99.90
12959;DHT22;6544;51.666;6.634;2023-09-30T14:41:45;20.40;99.90
12959;DHT22;6544;51.666;6.634;2023-09-30T14:44:12;20.40;99.90
12959;DHT22;6544;51.666;6.634;2023-09-30T14:46:39;20.40;99.90
12959;DHT22;6544;51.666;6.634;2023-09-30T14:49:06;20.40;99.90
12959;DHT22;6544;51.666;6.634;2023-09-30T14:51:33;20.40;99.90
12959;DHT22;6544;51.666;6.634;2023-09-30T14:54:01;20.40;99.90
12959;DHT22;6544;51.666;6.634;2023-09-30T14:56:29;20.30;99.90
12959;DHT22;6544;51.666;6.634;2023-09-30T14:58:57;20.20;99.90
12959;DHT22;6544;51.666;6.634;2023-09-30T15:01:25;20.20;99.90
12959;DHT22;6544;51.666;6.634;2023-09-30T15:03:52;20.10;99.90
12959;DHT22;6544;51.666;6.634;2023-09-30T15:06:19;20.10;99.90
12959;DHT22;6544;51.666;6.634;2023-09-30T15:08:49;19.90;99.90
12959;DHT22;6544;51.666;6.634;2023-09-30T15:11:16;19.80;99.90
12959;DHT22;6544;51.666;6.634;2023-09-30T15:13:44;19.90;99.90
12959;DHT22;6544;51.666;6.634;2023-09-30T15:16:17;19.80;99.90
12959;DHT22;6544;51.666;6.634;2023-09-30T15:18:44;19.80;99.90
12959;DHT22;6544;51.666;6.634;2023-09-30T15:21:12;19.80;99.90
12959;DHT22;6544;51.666;6.634;2023-09-30T15:23:39;19.90;99.90
12959;DHT22;6544;51.666;6.634;2023-09-30T15:26:06;19.90;99.90
12959;DHT22;6544;51.666;6.634;2023-09-30T15:28:33;19.90;99.90
12959;DHT22;6544;51.666;6.634;2023-09-30T15:31:00;19.90;99.90
12959;DHT22;6544;51.666;6.634;2023-09-30T15:33:29;20.00;99.90
12959;DHT22;6544;51.666;6.634;2023-09-30T15:35:56;20.00;99.90
12959;DHT22;6544;51.666;6.634;2023-09-30T15:38:23;20.00;99.90
12959;DHT22;6544;51.666;6.634;2023-09-30T15:40:54;20.00;99.90
12959;DHT22;6544;51.666;6.634;2023-09-30T15:43:23;20.00;99.90
12959;DHT22;6544;51.666;6.634;2023-09-30T15:45:50;20.00;99.90
12959;DHT22;6544;51.666;6.634;2023-09-30T15:48:17;20.00;99.90
12959;DHT22;6544;51.666;6.634;2023-09-30T15:50:46;20.00;99.90
12959;DHT22;6544;51.666;6.634;2023-09-30T15:53:13;20.00;99.90
12959;DHT22;6544;51.666;6.634;2023-09-30T15:55:40;20.00;99.90
12959;DHT22;6544;51.666;6.634;2023-09-30T15:58:07;19.90;99.90